Time;durP1;ratioP1;P1;durP2;ratioP2;P2;SDS_P1;SDS_P2;PMS_P1;PMS_P2;Temp;Humidity;BMP_temperature;BMP_pressure;BME280_temperature;BME280_humidity;BME280_pressure;Samples;Min_cycle;Max_cycle;Signal;HPM_P1;HPM_P2
2022/07/17 00:02:15;;;;;;;5.63;2.08;;;20.10;75.90;;;;;;5036823;28;20103;-71
2022/07/17 00:04:41;;;;;;;9.20;1.95;;;20.10;75.90;;;;;;5032962;28;20045;-71
2022/07/17 00:07:07;;;;;;;5.07;1.83;;;20.00;75.60;;;;;;5031570;28;20026;-71
2022/07/17 00:09:33;;;;;;;3.33;1.80;;;19.90;75.80;;;;;;5034162;28;20044;-71
2022/07/17 00:11:58;;;;;;;4.00;1.70;;;19.90;75.80;;;;;;5032594;28;20029;-71
2022/07/17 00:14:24;;;;;;;4.15;1.67;;;19.80;75.60;;;;;;5034366;28;20055;-71
2022/07/17 00:16:51;;;;;;;6.13;1.88;;;19.80;75.80;;;;;;5033033;28;20025;-71
2022/07/17 00:19:17;;;;;;;8.32;2.05;;;19.80;75.90;;;;;;5032765;28;20083;-71
2022/07/17 00:21:43;;;;;;;7.60;1.88;;;19.70;75.70;;;;;;5033343;28;20041;-71
2022/07/17 00:24:08;;;;;;;4.78;1.65;;;19.70;75.60;;;;;;5046112;28;20088;-71
2022/07/17 00:26:34;;;;;;;12.70;1.70;;;19.70;75.80;;;;;;5032305;28;20045;-71
2022/07/17 00:29:02;;;;;;;7.13;1.98;;;19.60;75.90;;;;;;5062524;28;20029;-71
2022/07/17 00:31:27;;;;;;;10.40;2.17;;;19.60;75.90;;;;;;5034030;28;20048;-71
2022/07/17 00:33:53;;;;;;;6.60;1.80;;;19.50;75.80;;;;;;5032035;28;20481;-71
2022/07/17 00:36:19;;;;;;;3.58;1.85;;;19.50;75.80;;;;;;5036303;28;20038;-71
2022/07/17 00:38:44;;;;;;;4.43;1.90;;;19.50;76.10;;;;;;5033376;28;20037;-71
2022/07/17 00:41:14;;;;;;;7.88;2.05;;;19.50;76.30;;;;;;5042335;28;20030;-71
2022/07/17 00:43:39;;;;;;;4.82;1.70;;;19.40;76.20;;;;;;5032612;28;20488;-71
2022/07/17 00:46:05;;;;;;;6.82;2.05;;;19.30;76.30;;;;;;5032596;28;20060;-71
2022/07/17 00:48:32;;;;;;;4.07;1.90;;;19.30;76.20;;;;;;5034256;28;20036;-71
2022/07/17 00:50:57;;;;;;;4.50;1.65;;;19.30;76.20;;;;;;5034649;28;20128;-71
2022/07/17 00:53:23;;;;;;;4.05;1.50;;;19.20;75.90;;;;;;5031972;28;20528;-71
2022/07/17 00:55:49;;;;;;;4.75;1.83;;;19.10;75.80;;;;;;5033724;28;20113;-72
2022/07/17 00:58:39;;;;;;;7.05;1.90;;;19.10;75.50;;;;;;5034982;28;20052;-71
2022/07/17 01:01:08;;;;;;;5.78;1.70;;;19.10;75.40;;;;;;5030994;28;20037;-71
2022/07/17 01:03:36;;;;;;;7.70;1.90;;;19.10;75.20;;;;;;5034029;28;20461;-71
2022/07/17 01:06:03;;;;;;;5.57;1.92;;;19.00;75.00;;;;;;5035613;28;20034;-71
2022/07/17 01:08:29;;;;;;;2.95;1.60;;;18.90;75.10;;;;;;5026451;28;20038;-71
2022/07/17 01:10:55;;;;;;;5.25;1.90;;;18.90;75.00;;;;;;5032876;28;20097;-71
2022/07/17 01:13:21;;;;;;;7.80;1.90;;;18.90;74.90;;;;;;5035729;28;20575;-71
2022/07/17 01:15:47;;;;;;;5.63;2.05;;;18.90;74.80;;;;;;5047560;28;20520;-71
2022/07/17 01:18:14;;;;;;;6.55;2.17;;;18.90;75.00;;;;;;5024852;28;20025;-71
2022/07/17 01:20:47;;;;;;;5.00;1.92;;;18.80;75.00;;;;;;5051702;28;20388;-71
2022/07/17 01:23:14;;;;;;;4.15;1.58;;;18.80;75.10;;;;;;5019272;28;20112;-71
2022/07/17 01:25:40;;;;;;;4.95;1.98;;;18.80;75.60;;;;;;5033043;28;20041;-71
2022/07/17 01:28:06;;;;;;;4.90;1.95;;;18.80;75.70;;;;;;5031639;28;20048;-71
2022/07/17 01:30:32;;;;;;;7.38;2.33;;;18.70;75.30;;;;;;5033509;28;20030;-72
2022/07/17 01:33:01;;;;;;;4.60;1.83;;;18.70;75.40;;;;;;5043971;28;20061;-71
2022/07/17 01:35:27;;;;;;;6.72;1.92;;;18.60;75.50;;;;;;5031458;28;20064;-71
2022/07/17 01:37:53;;;;;;;6.28;2.10;;;18.60;75.30;;;;;;5037997;28;20029;-75
2022/07/17 01:40:19;;;;;;;4.22;1.85;;;18.60;75.50;;;;;;5038172;28;20036;-71
2022/07/17 01:42:47;;;;;;;6.93;2.10;;;18.50;75.80;;;;;;5033184;28;20474;-71
2022/07/17 01:45:16;;;;;;;3.03;1.67;;;18.50;76.10;;;;;;5051981;28;20094;-71
2022/07/17 01:47:42;;;;;;;16.02;2.35;;;18.40;76.10;;;;;;5034602;28;20035;-71
2022/07/17 01:50:09;;;;;;;6.85;1.98;;;18.40;76.40;;;;;;5031334;28;20108;-71
2022/07/17 01:52:37;;;;;;;4.25;1.80;;;18.40;76.30;;;;;;5047633;28;20028;-71
2022/07/17 01:55:04;;;;;;;6.53;2.00;;;18.30;76.40;;;;;;5055271;28;20072;-71
2022/07/17 01:57:30;;;;;;;12.75;2.40;;;18.30;76.50;;;;;;5052333;28;20029;-71
2022/07/17 01:59:56;;;;;;;3.13;2.05;;;18.20;76.30;;;;;;5054361;28;20036;-71
2022/07/17 02:02:24;;;;;;;8.07;2.00;;;18.30;76.10;;;;;;5037475;28;20466;-71
2022/07/17 02:04:50;;;;;;;2.75;1.80;;;18.20;76.10;;;;;;5043800;28;20060;-71
2022/07/17 02:07:16;;;;;;;4.72;2.03;;;18.10;76.00;;;;;;5053502;28;20417;-71
2022/07/17 02:09:42;;;;;;;4.10;2.08;;;18.10;76.10;;;;;;5048584;28;20063;-71
2022/07/17 02:12:07;;;;;;;7.15;2.42;;;18.10;76.00;;;;;;5049700;28;20021;-71
2022/07/17 02:14:37;;;;;;;15.57;3.05;;;18.00;76.00;;;;;;5040410;28;20426;-71
2022/07/17 02:17:03;;;;;;;7.47;2.05;;;18.00;75.90;;;;;;5050650;28;20029;-71
2022/07/17 02:19:28;;;;;;;4.63;2.10;;;18.00;76.00;;;;;;5036427;28;20040;-71
2022/07/17 02:21:54;;;;;;;2.80;1.90;;;18.00;76.70;;;;;;5045721;28;20040;-71
2022/07/17 02:24:20;;;;;;;8.27;2.10;;;18.00;76.00;;;;;;5042234;28;20145;-71
2022/07/17 02:26:46;;;;;;;5.80;2.42;;;17.90;76.30;;;;;;5044704;28;20053;-72
2022/07/17 02:29:12;;;;;;;5.05;1.60;;;17.90;76.20;;;;;;5037669;28;20492;-71
2022/07/17 02:31:37;;;;;;;4.80;1.90;;;17.80;76.40;;;;;;5042891;28;20079;-71
2022/07/17 02:34:06;;;;;;;7.05;2.20;;;17.80;76.50;;;;;;5036281;28;20561;-71
2022/07/17 02:36:37;;;;;;;8.63;2.03;;;17.80;76.70;;;;;;5048461;28;20032;-72
2022/07/17 02:39:04;;;;;;;4.85;1.90;;;17.70;76.70;;;;;;5047099;28;20491;-72
2022/07/17 02:41:30;;;;;;;8.65;2.20;;;17.70;76.80;;;;;;5050605;28;20553;-72
2022/07/17 02:43:55;;;;;;;5.00;2.00;;;17.70;76.90;;;;;;5053325;28;20116;-72
2022/07/17 02:46:21;;;;;;;7.75;2.38;;;17.70;77.00;;;;;;5050653;28;20036;-72
2022/07/17 02:48:47;;;;;;;9.88;2.17;;;17.70;77.00;;;;;;5050520;28;20041;-72
2022/07/17 02:51:12;;;;;;;3.42;1.95;;;17.70;77.30;;;;;;5049337;28;20192;-72
2022/07/17 02:53:38;;;;;;;5.55;1.98;;;17.60;77.40;;;;;;5050291;28;20028;-72
2022/07/17 02:56:07;;;;;;;6.07;1.95;;;17.60;77.50;;;;;;5046746;28;20017;-72
2022/07/17 02:58:33;;;;;;;4.03;2.00;;;17.60;77.50;;;;;;5052515;28;20029;-72
2022/07/17 03:00:59;;;;;;;4.20;2.17;;;17.60;77.50;;;;;;5048099;28;20056;-72
2022/07/17 03:03:24;;;;;;;6.70;2.15;;;17.50;77.60;;;;;;5052764;28;20032;-72
2022/07/17 03:05:50;;;;;;;4.15;2.30;;;17.50;77.80;;;;;;5046606;28;20043;-72
2022/07/17 03:08:18;;;;;;;5.97;2.30;;;17.40;77.50;;;;;;5050504;28;20029;-72
2022/07/17 03:10:44;;;;;;;5.45;1.98;;;17.50;77.80;;;;;;5045469;28;20076;-72
2022/07/17 03:13:19;;;;;;;9.00;2.10;;;17.40;77.80;;;;;;5049032;28;20025;-72
2022/07/17 03:15:45;;;;;;;4.68;2.00;;;17.40;78.10;;;;;;5033851;28;20025;-71
2022/07/17 03:18:10;;;;;;;6.50;2.22;;;17.40;78.10;;;;;;5035014;28;20052;-74
2022/07/17 03:20:36;;;;;;;4.88;2.15;;;17.30;78.20;;;;;;5034436;28;20051;-72
2022/07/17 03:23:02;;;;;;;7.68;2.88;;;17.30;78.20;;;;;;5033326;28;20100;-72
2022/07/17 03:25:28;;;;;;;7.18;2.35;;;17.30;78.30;;;;;;5034840;28;20052;-71
2022/07/17 03:27:53;;;;;;;4.00;2.05;;;17.20;78.30;;;;;;5032593;28;20018;-72
2022/07/17 03:30:19;;;;;;;7.53;2.28;;;17.20;78.40;;;;;;5034328;28;20029;-72
2022/07/17 03:32:45;;;;;;;10.13;2.38;;;17.20;78.60;;;;;;5034566;28;20045;-72
2022/07/17 03:35:10;;;;;;;7.88;2.30;;;17.20;78.70;;;;;;5033829;28;20045;-72
2022/07/17 03:37:37;;;;;;;5.32;2.40;;;17.20;78.80;;;;;;5034084;28;20021;-72
2022/07/17 03:40:05;;;;;;;3.42;2.22;;;17.10;78.90;;;;;;5034242;28;20061;-72
2022/07/17 03:42:31;;;;;;;4.63;1.95;;;17.10;79.00;;;;;;5033421;28;20112;-72
2022/07/17 03:44:57;;;;;;;4.35;2.20;;;17.20;79.20;;;;;;5034332;28;20140;-72
2022/07/17 03:47:22;;;;;;;4.25;2.10;;;17.10;79.20;;;;;;5035706;28;20451;-72
2022/07/17 03:49:48;;;;;;;5.93;2.00;;;17.10;79.30;;;;;;5034484;28;20112;-72
2022/07/17 03:52:14;;;;;;;6.00;2.08;;;17.10;79.40;;;;;;5034618;28;20018;-72
2022/07/17 03:54:40;;;;;;;9.70;2.17;;;17.10;79.50;;;;;;5034080;28;20385;-72
2022/07/17 03:57:05;;;;;;;5.95;2.20;;;17.10;79.60;;;;;;5033176;28;20485;-72
2022/07/17 03:59:31;;;;;;;9.45;2.13;;;17.10;79.70;;;;;;5033769;28;20473;-72
2022/07/17 04:01:59;;;;;;;5.28;2.20;;;17.00;79.80;;;;;;5034844;28;20515;-72
2022/07/17 04:04:25;;;;;;;8.77;2.33;;;17.10;80.10;;;;;;5033490;28;20041;-72
2022/07/17 04:06:51;;;;;;;7.72;3.03;;;17.10;80.20;;;;;;5034041;28;20563;-72
2022/07/17 04:09:17;;;;;;;11.45;2.75;;;17.00;80.30;;;;;;5035073;28;20042;-72
2022/07/17 04:11:42;;;;;;;5.38;2.20;;;17.10;80.50;;;;;;5033309;28;20453;-72
2022/07/17 04:14:08;;;;;;;5.68;2.28;;;17.10;80.70;;;;;;5046304;28;20075;-72
2022/07/17 04:16:34;;;;;;;5.30;2.00;;;17.00;80.90;;;;;;5040883;28;20073;-72
2022/07/17 04:19:00;;;;;;;5.15;2.40;;;17.10;80.90;;;;;;5050804;28;20064;-72
2022/07/17 04:21:29;;;;;;;9.15;2.22;;;17.10;81.00;;;;;;5053469;28;20033;-72
2022/07/17 04:23:55;;;;;;;7.78;2.47;;;17.00;80.90;;;;;;5032230;28;20050;-72
2022/07/17 04:26:20;;;;;;;9.95;2.25;;;17.10;81.00;;;;;;5033936;28;20048;-72
2022/07/17 04:28:46;;;;;;;8.02;2.40;;;17.10;81.00;;;;;;5033641;28;20052;-72
2022/07/17 04:31:12;;;;;;;6.70;2.80;;;17.10;80.90;;;;;;5033534;28;20536;-72
2022/07/17 04:33:38;;;;;;;7.03;2.60;;;17.10;81.00;;;;;;5031595;28;20393;-72
2022/07/17 04:36:04;;;;;;;5.07;2.22;;;17.10;81.00;;;;;;5033373;28;20482;-72
2022/07/17 04:38:29;;;;;;;7.43;2.25;;;17.00;81.00;;;;;;5031915;28;20041;-71
2022/07/17 04:40:55;;;;;;;13.95;2.75;;;17.00;81.10;;;;;;5033128;28;20040;-72
2022/07/17 04:43:21;;;;;;;8.35;2.45;;;17.10;81.30;;;;;;5032837;28;20359;-72
2022/07/17 04:45:47;;;;;;;8.57;2.63;;;17.10;81.20;;;;;;5032722;28;20505;-72
2022/07/17 04:48:15;;;;;;;11.60;2.38;;;17.00;81.10;;;;;;5033093;28;20022;-72
2022/07/17 04:50:41;;;;;;;6.72;2.30;;;17.00;81.20;;;;;;5033044;28;20501;-72
2022/07/17 04:53:07;;;;;;;6.03;2.45;;;17.00;81.10;;;;;;5038153;28;20122;-72
2022/07/17 04:55:32;;;;;;;5.38;2.17;;;17.00;81.10;;;;;;5038477;28;20021;-72
2022/07/17 04:58:01;;;;;;;9.85;2.33;;;17.10;81.10;;;;;;5039734;28;20112;-72
2022/07/17 05:00:27;;;;;;;10.35;2.42;;;17.00;81.10;;;;;;5037242;28;20489;-72
2022/07/17 05:02:53;;;;;;;9.40;2.50;;;17.00;81.10;;;;;;5033244;28;20035;-72
2022/07/17 05:05:19;;;;;;;4.35;2.25;;;17.10;81.30;;;;;;5032347;28;20424;-72
2022/07/17 05:07:44;;;;;;;6.85;2.60;;;17.10;81.40;;;;;;5032725;28;20026;-72
2022/07/17 05:10:10;;;;;;;8.27;2.17;;;17.10;81.40;;;;;;5032426;28;20037;-73
2022/07/17 05:12:36;;;;;;;7.30;2.65;;;17.00;81.10;;;;;;5042894;28;20107;-72
2022/07/17 05:15:03;;;;;;;3.47;1.98;;;17.10;81.10;;;;;;5045804;28;20104;-72
2022/07/17 05:17:29;;;;;;;7.25;2.60;;;17.10;81.10;;;;;;5032734;28;20380;-72
2022/07/17 05:19:54;;;;;;;4.43;2.00;;;17.00;81.10;;;;;;5045519;28;20123;-72
2022/07/17 05:22:20;;;;;;;6.88;2.10;;;17.00;81.00;;;;;;5049684;28;20033;-72
2022/07/17 05:24:46;;;;;;;4.82;2.10;;;17.00;80.90;;;;;;5051076;28;20037;-72
2022/07/17 05:27:12;;;;;;;6.80;2.60;;;17.00;81.10;;;;;;5043618;28;20071;-72
2022/07/17 05:29:38;;;;;;;8.10;2.05;;;17.00;81.40;;;;;;5044325;28;20536;-72
2022/07/17 05:32:04;;;;;;;8.60;3.00;;;17.00;81.50;;;;;;5050374;28;20055;-72
2022/07/17 05:34:29;;;;;;;5.13;2.08;;;17.00;81.70;;;;;;5049287;28;20036;-72
2022/07/17 05:36:58;;;;;;;12.57;2.35;;;17.00;81.70;;;;;;5050401;28;20033;-72
2022/07/17 05:39:24;;;;;;;5.90;2.13;;;17.00;81.80;;;;;;5049653;28;20036;-72
2022/07/17 05:41:49;;;;;;;4.25;1.90;;;17.00;82.10;;;;;;5026290;28;20029;-72
2022/07/17 05:44:15;;;;;;;4.50;2.00;;;17.00;82.10;;;;;;5047997;28;20040;-72
2022/07/17 05:46:41;;;;;;;7.22;2.13;;;17.00;82.40;;;;;;5042632;28;20025;-72
2022/07/17 05:49:06;;;;;;;5.07;1.63;;;17.10;82.10;;;;;;5043654;28;20064;-72
2022/07/17 05:51:32;;;;;;;4.85;2.00;;;17.10;81.80;;;;;;5043472;28;20029;-71
2022/07/17 05:53:58;;;;;;;7.47;2.13;;;17.10;81.80;;;;;;5044302;28;20029;-72
2022/07/17 05:56:23;;;;;;;4.90;1.58;;;17.10;82.10;;;;;;5049163;28;20472;-72
2022/07/17 05:58:49;;;;;;;5.72;1.92;;;17.10;81.90;;;;;;5050769;28;20032;-72
2022/07/17 06:01:15;;;;;;;4.05;1.70;;;17.10;81.60;;;;;;5050505;28;20040;-72
2022/07/17 06:03:41;;;;;;;7.85;1.75;;;17.10;81.70;;;;;;5049043;28;20037;-72
2022/07/17 06:06:09;;;;;;;5.47;1.58;;;17.10;81.70;;;;;;5032598;28;20551;-72
2022/07/17 06:08:35;;;;;;;5.72;2.65;;;17.10;81.80;;;;;;5032609;28;20428;-72
2022/07/17 06:11:01;;;;;;;2.38;1.55;;;17.10;82.00;;;;;;5031133;28;20037;-72
2022/07/17 06:13:26;;;;;;;5.75;1.48;;;17.10;82.40;;;;;;5034603;28;20557;-72
2022/07/17 06:15:52;;;;;;;5.40;1.48;;;17.20;82.40;;;;;;5038063;28;20095;-72
2022/07/17 06:18:18;;;;;;;10.07;1.95;;;17.20;82.40;;;;;;5031142;28;20192;-72
2022/07/17 06:20:43;;;;;;;3.15;1.80;;;17.20;82.50;;;;;;5029768;28;20025;-72
2022/07/17 06:23:09;;;;;;;4.00;1.90;;;17.10;82.50;;;;;;5031563;28;20080;-72
2022/07/17 06:25:38;;;;;;;3.33;1.50;;;17.20;82.50;;;;;;5030884;28;20041;-71
2022/07/17 06:28:04;;;;;;;3.42;1.58;;;17.20;82.70;;;;;;5031851;28;20036;-72
2022/07/17 06:30:29;;;;;;;5.00;1.60;;;17.20;82.80;;;;;;5030875;28;20030;-72
2022/07/17 06:32:56;;;;;;;4.43;1.50;;;17.10;82.60;;;;;;5031455;28;20394;-72
2022/07/17 06:35:21;;;;;;;5.53;1.52;;;17.20;83.00;;;;;;5031410;28;20036;-72
2022/07/17 06:37:47;;;;;;;6.40;1.73;;;17.20;83.20;;;;;;5031233;28;20501;-72
2022/07/17 06:40:13;;;;;;;3.92;1.75;;;17.30;83.10;;;;;;5037464;28;20496;-72
2022/07/17 06:42:38;;;;;;;11.85;1.60;;;17.30;83.20;;;;;;5036305;28;20061;-72
2022/07/17 06:45:05;;;;;;;4.03;1.75;;;17.30;83.20;;;;;;5035149;28;20059;-72
2022/07/17 06:47:30;;;;;;;10.55;1.83;;;17.30;83.00;;;;;;5035131;28;20410;-72
2022/07/17 06:49:59;;;;;;;7.40;1.80;;;17.30;83.00;;;;;;5035851;28;20029;-72
2022/07/17 06:52:25;;;;;;;4.57;1.42;;;17.30;83.40;;;;;;5035709;28;20099;-72
2022/07/17 06:54:50;;;;;;;4.65;1.60;;;17.40;83.10;;;;;;5023341;28;20038;-72
2022/07/17 06:57:16;;;;;;;3.38;1.50;;;17.40;83.00;;;;;;5034684;28;20037;-72
2022/07/17 06:59:42;;;;;;;2.95;1.10;;;17.50;83.20;;;;;;5034803;28;20029;-72
2022/07/17 07:02:07;;;;;;;6.05;2.33;;;17.40;83.10;;;;;;5034620;28;20400;-72
2022/07/17 07:04:33;;;;;;;4.07;1.60;;;17.50;83.20;;;;;;5035584;28;20041;-72
2022/07/17 07:07:01;;;;;;;6.90;1.95;;;17.50;83.30;;;;;;5033456;28;20112;-72
2022/07/17 07:09:27;;;;;;;5.53;1.52;;;17.50;83.60;;;;;;5035393;28;20487;-72
2022/07/17 07:11:53;;;;;;;6.45;1.65;;;17.50;84.00;;;;;;5041532;28;20151;-72
2022/07/17 07:14:18;;;;;;;2.35;1.25;;;17.60;84.10;;;;;;5052725;28;20400;-72
2022/07/17 07:16:44;;;;;;;3.17;1.67;;;17.60;83.90;;;;;;5048382;28;20089;-72
2022/07/17 07:19:10;;;;;;;8.38;1.30;;;17.60;84.00;;;;;;5041819;28;20026;-72
2022/07/17 07:21:36;;;;;;;1.45;0.82;;;17.60;83.90;;;;;;5047175;28;20036;-72
2022/07/17 07:24:01;;;;;;;5.30;1.63;;;17.60;84.50;;;;;;5040101;28;20077;-72
2022/07/17 07:26:27;;;;;;;3.55;1.13;;;17.60;84.20;;;;;;5028174;28;20120;-72
2022/07/17 07:28:53;;;;;;;1.58;1.02;;;17.60;84.20;;;;;;5034299;28;20026;-72
2022/07/17 07:31:19;;;;;;;3.03;1.10;;;17.70;84.30;;;;;;5047110;28;20037;-72
2022/07/17 07:33:45;;;;;;;8.32;1.40;;;17.70;84.50;;;;;;5041606;28;20053;-72
2022/07/17 07:36:11;;;;;;;3.47;1.23;;;17.80;84.40;;;;;;5038956;28;20033;-72
2022/07/17 07:38:40;;;;;;;2.00;1.10;;;17.80;84.50;;;;;;5040857;28;20516;-72
2022/07/17 07:41:05;;;;;;;1.13;0.60;;;17.80;84.10;;;;;;5049711;28;20108;-72
2022/07/17 07:43:31;;;;;;;5.10;1.30;;;17.80;84.00;;;;;;5051097;28;20124;-71
2022/07/17 07:45:57;;;;;;;2.10;1.00;;;17.90;84.50;;;;;;5050627;28;20053;-72
2022/07/17 07:48:23;;;;;;;8.30;1.58;;;17.90;84.50;;;;;;5050326;28;20451;-71
2022/07/17 07:50:52;;;;;;;3.53;1.20;;;17.90;85.20;;;;;;5047298;28;20116;-73
2022/07/17 07:53:17;;;;;;;2.83;1.10;;;17.90;84.40;;;;;;5048961;28;20040;-72
2022/07/17 07:55:43;;;;;;;9.18;1.40;;;17.90;84.60;;;;;;5045521;28;20020;-73
2022/07/17 07:58:11;;;;;;;4.30;1.33;;;18.00;84.40;;;;;;5048996;28;20041;-72
2022/07/17 08:00:39;;;;;;;3.83;1.20;;;18.10;84.60;;;;;;5048024;28;20327;-73
2022/07/17 08:03:06;;;;;;;7.07;1.25;;;18.10;84.40;;;;;;5048058;28;20037;-73
2022/07/17 08:05:32;;;;;;;12.98;1.77;;;18.10;84.40;;;;;;5045237;28;20423;-73
2022/07/17 08:07:58;;;;;;;7.47;1.58;;;18.10;84.80;;;;;;5045179;28;20480;-73
2022/07/17 08:10:24;;;;;;;8.20;2.50;;;18.10;85.00;;;;;;5045052;28;20417;-73
2022/07/17 08:12:50;;;;;;;7.97;2.28;;;18.20;85.20;;;;;;5049073;28;20031;-73
2022/07/17 08:15:18;;;;;;;4.30;1.27;;;18.30;85.20;;;;;;5037222;28;20037;-74
2022/07/17 08:17:45;;;;;;;8.98;1.65;;;18.40;84.50;;;;;;5033167;28;20381;-74
2022/07/17 08:20:12;;;;;;;6.57;1.33;;;18.50;84.60;;;;;;5035704;28;20037;-73
2022/07/17 08:22:37;;;;;;;3.08;0.80;;;18.50;84.50;;;;;;5046010;28;20041;-72
2022/07/17 08:25:03;;;;;;;6.43;1.63;;;18.60;83.50;;;;;;5041232;28;20067;-70
2022/07/17 08:27:36;;;;;;;5.72;1.50;;;18.60;83.50;;;;;;5042549;28;20393;-72
2022/07/17 08:30:07;;;;;;;6.35;1.75;;;18.60;83.70;;;;;;5035365;28;20389;-71
2022/07/17 08:32:33;;;;;;;3.38;1.17;;;18.70;84.30;;;;;;5038536;28;20064;-71
2022/07/17 08:34:59;;;;;;;7.25;1.45;;;18.70;83.50;;;;;;5046499;28;20029;-73
2022/07/17 08:37:25;;;;;;;8.13;1.20;;;18.70;83.60;;;;;;5043836;28;20032;-73
2022/07/17 08:39:52;;;;;;;7.18;1.25;;;18.70;83.50;;;;;;5046428;28;20060;-73
2022/07/17 08:42:18;;;;;;;10.43;1.20;;;18.80;83.50;;;;;;5042617;28;20527;-71
2022/07/17 08:44:45;;;;;;;8.25;1.27;;;18.80;83.30;;;;;;5046496;28;20110;-70
2022/07/17 08:47:11;;;;;;;10.32;1.20;;;18.80;83.20;;;;;;5050337;28;20029;-68
2022/07/17 08:49:47;;;;;;;2.88;1.20;;;18.80;83.50;;;;;;5046123;28;20056;-71
2022/07/17 08:52:13;;;;;;;6.80;1.30;;;18.90;83.60;;;;;;5046808;28;20507;-72
2022/07/17 08:54:40;;;;;;;7.68;1.30;;;18.90;83.60;;;;;;5044915;28;20025;-72
2022/07/17 08:57:07;;;;;;;3.45;0.50;;;19.00;83.60;;;;;;5046988;28;20093;-72
2022/07/17 08:59:32;;;;;;;5.28;1.30;;;19.00;83.00;;;;;;5047639;28;20078;-72
2022/07/17 09:02:03;;;;;;;4.95;1.58;;;19.00;83.80;;;;;;5047139;28;20032;-72
2022/07/17 09:04:28;;;;;;;3.53;1.30;;;19.00;83.20;;;;;;5045197;28;20174;-72
2022/07/17 09:07:02;;;;;;;7.47;1.80;;;19.00;83.40;;;;;;5045570;28;20111;-73
2022/07/17 09:09:28;;;;;;;5.82;1.52;;;19.10;83.20;;;;;;5039696;28;20025;-72
2022/07/17 09:11:56;;;;;;;2.33;1.10;;;19.20;83.20;;;;;;5038116;28;20495;-74
2022/07/17 09:14:22;;;;;;;3.55;1.08;;;19.30;84.10;;;;;;5045921;28;20504;-72
2022/07/17 09:16:50;;;;;;;4.40;1.45;;;19.40;83.20;;;;;;5035485;28;20029;-74
2022/07/17 09:19:30;;;;;;;3.95;1.23;;;19.40;82.80;;;;;;5031572;28;20034;-72
2022/07/17 09:22:08;;;;;;;6.22;1.25;;;19.40;83.30;;;;;;5031465;28;20527;-71
2022/07/17 09:24:50;;;;;;;5.32;1.40;;;19.50;83.60;;;;;;5040929;28;20040;-72
2022/07/17 09:27:31;;;;;;;3.78;1.30;;;19.60;83.40;;;;;;5037632;28;20032;-72
2022/07/17 09:30:06;;;;;;;2.30;1.27;;;19.70;82.50;;;;;;5046307;28;20029;-71
2022/07/17 09:32:36;;;;;;;6.05;1.40;;;19.70;82.50;;;;;;5033677;28;20104;-70
2022/07/17 09:35:04;;;;;;;8.05;1.60;;;19.60;82.50;;;;;;5040947;28;20044;-71
2022/07/17 09:37:32;;;;;;;5.18;1.20;;;19.70;82.10;;;;;;5041723;28;20132;-71
2022/07/17 09:39:58;;;;;;;4.22;1.42;;;19.70;82.40;;;;;;5046931;28;20036;-71
2022/07/17 09:42:26;;;;;;;5.32;1.40;;;19.80;82.20;;;;;;5040368;28;20033;-71
2022/07/17 09:45:08;;;;;;;8.05;1.45;;;19.80;82.00;;;;;;5024636;28;20042;-71
2022/07/17 09:47:36;;;;;;;8.45;1.77;;;19.80;82.20;;;;;;5032668;28;20072;-72
2022/07/17 09:50:06;;;;;;;9.95;1.45;;;20.00;82.20;;;;;;5040338;28;20040;-72
2022/07/17 09:52:35;;;;;;;2.35;1.30;;;20.10;82.00;;;;;;5037458;28;20402;-72
2022/07/17 09:55:01;;;;;;;2.55;1.48;;;20.10;81.90;;;;;;5035050;28;20508;-72
2022/07/17 09:57:30;;;;;;;9.98;1.60;;;20.20;81.80;;;;;;5046097;28;20047;-74
2022/07/17 10:00:05;;;;;;;8.27;1.45;;;20.20;81.60;;;;;;5045808;28;20032;-71
2022/07/17 10:02:44;;;;;;;6.18;1.83;;;20.20;80.90;;;;;;5039208;28;20087;-72
2022/07/17 10:05:12;;;;;;;4.97;1.67;;;20.20;81.20;;;;;;5045941;28;20033;-72
2022/07/17 10:07:42;;;;;;;4.55;1.45;;;20.30;81.00;;;;;;5044209;28;20366;-72
2022/07/17 10:10:09;;;;;;;3.65;1.50;;;20.30;80.70;;;;;;5039210;28;20036;-73
2022/07/17 10:12:40;;;;;;;5.45;1.35;;;20.40;80.60;;;;;;5044646;28;20484;-73
2022/07/17 10:15:09;;;;;;;4.75;1.50;;;20.50;80.60;;;;;;5048738;28;20108;-73
2022/07/17 10:17:38;;;;;;;7.53;1.30;;;20.60;80.80;;;;;;5050761;28;20067;-72
2022/07/17 10:20:04;;;;;;;3.67;1.20;;;20.70;80.50;;;;;;5052033;28;20033;-72
2022/07/17 10:22:45;;;;;;;4.85;1.25;;;20.80;80.60;;;;;;5045662;28;20040;-72
2022/07/17 10:25:15;;;;;;;2.92;1.00;;;20.90;80.80;;;;;;5042164;28;20102;-72
2022/07/17 10:28:07;;;;;;;5.53;1.73;;;20.90;80.20;;;;;;5042389;28;20028;-73
2022/07/17 10:30:33;;;;;;;2.10;1.20;;;20.90;79.80;;;;;;5034172;28;20488;-73
2022/07/17 10:33:06;;;;;;;7.45;1.77;;;21.00;80.00;;;;;;5035340;28;20029;-74
2022/07/17 10:35:44;;;;;;;5.35;1.75;;;21.00;79.90;;;;;;5034237;28;20041;-73
2022/07/17 10:38:12;;;;;;;7.93;1.48;;;21.10;79.60;;;;;;5034662;28;20037;-73
2022/07/17 10:40:39;;;;;;;3.70;1.63;;;21.10;79.40;;;;;;5049251;28;20029;-74
2022/07/17 10:43:06;;;;;;;4.85;1.40;;;21.20;79.00;;;;;;5049668;28;20036;-73
2022/07/17 10:45:35;;;;;;;4.75;1.48;;;21.30;79.00;;;;;;5055290;28;20033;-72
2022/07/17 10:48:12;;;;;;;5.68;1.58;;;21.40;78.70;;;;;;5048215;28;20051;-74
2022/07/17 10:50:41;;;;;;;2.67;1.30;;;21.30;79.00;;;;;;5042979;28;20040;-72
2022/07/17 10:53:20;;;;;;;11.10;1.33;;;21.30;78.90;;;;;;5048675;28;20086;-73
2022/07/17 10:56:03;;;;;;;6.68;1.63;;;21.30;78.60;;;;;;5036152;28;20040;-72
2022/07/17 10:58:40;;;;;;;6.32;1.58;;;21.30;78.90;;;;;;5039389;28;20031;-72
2022/07/17 11:01:17;;;;;;;4.38;1.10;;;21.50;78.80;;;;;;5042145;28;20026;-72
2022/07/17 11:03:51;;;;;;;3.60;1.60;;;21.50;78.70;;;;;;5045878;28;20044;-72
2022/07/17 11:06:19;;;;;;;5.30;1.40;;;21.60;78.60;;;;;;5049227;28;20032;-72
2022/07/17 11:08:50;;;;;;;2.30;1.13;;;21.60;78.40;;;;;;5046707;28;20108;-72
2022/07/17 11:11:22;;;;;;;4.20;1.58;;;21.70;78.40;;;;;;5047154;28;20036;-72
2022/07/17 11:13:48;;;;;;;9.85;1.70;;;21.80;78.30;;;;;;5048344;28;20037;-72
2022/07/17 11:16:25;;;;;;;3.65;1.17;;;21.80;78.60;;;;;;5048280;28;20053;-72
2022/07/17 11:18:51;;;;;;;3.17;1.20;;;21.90;77.90;;;;;;5047783;28;20772;-72
2022/07/17 11:21:18;;;;;;;3.80;1.20;;;21.90;77.80;;;;;;5051821;28;20047;-72
2022/07/17 11:23:51;;;;;;;2.58;1.23;;;21.90;78.00;;;;;;5044440;28;20053;-74
2022/07/17 11:26:19;;;;;;;2.20;1.20;;;22.00;78.60;;;;;;5037719;28;20049;-71
2022/07/17 11:28:45;;;;;;;2.80;1.13;;;22.00;78.50;;;;;;5028998;28;20509;-72
2022/07/17 11:31:21;;;;;;;2.20;1.00;;;22.00;78.80;;;;;;5041704;28;20025;-72
2022/07/17 11:33:48;;;;;;;6.00;1.13;;;21.90;78.50;;;;;;5048024;28;20039;-72
2022/07/17 11:36:24;;;;;;;3.95;1.40;;;22.00;78.20;;;;;;5040689;28;20786;-72
2022/07/17 11:38:50;;;;;;;5.40;1.25;;;22.00;77.50;;;;;;5044637;28;20032;-72
2022/07/17 11:41:20;;;;;;;2.97;1.38;;;22.10;78.00;;;;;;5040511;28;20036;-72
2022/07/17 11:43:47;;;;;;;3.63;1.13;;;22.20;78.00;;;;;;5031952;28;20100;-72
2022/07/17 11:46:14;;;;;;;1.70;1.10;;;22.20;77.30;;;;;;5044080;28;20034;-72
2022/07/17 11:48:44;;;;;;;3.95;1.35;;;22.20;78.00;;;;;;5044491;28;20377;-77
2022/07/17 11:51:10;;;;;;;3.85;1.25;;;22.30;77.90;;;;;;5046044;28;20030;-72
2022/07/17 11:53:38;;;;;;;3.28;1.10;;;22.30;78.00;;;;;;5044034;28;20041;-72
2022/07/17 11:56:05;;;;;;;4.28;1.42;;;22.30;77.80;;;;;;5038514;28;20547;-72
2022/07/17 11:58:46;;;;;;;5.38;1.45;;;22.30;77.30;;;;;;5049999;28;20053;-71
2022/07/17 12:01:15;;;;;;;6.68;1.55;;;22.40;76.60;;;;;;5041399;28;20021;-72
2022/07/17 12:03:41;;;;;;;8.40;1.45;;;22.50;76.30;;;;;;5047091;28;20120;-71
2022/07/17 12:06:07;;;;;;;2.80;1.63;;;22.50;76.60;;;;;;5030663;28;20124;-75
2022/07/17 12:08:34;;;;;;;7.00;1.30;;;22.60;76.00;;;;;;5067797;28;20025;-74
2022/07/17 12:11:06;;;;;;;1.73;1.15;;;22.70;76.50;;;;;;5045784;28;20551;-72
2022/07/17 12:13:44;;;;;;;6.45;1.42;;;22.60;77.00;;;;;;5038478;28;20490;-72
2022/07/17 12:16:42;;;;;;;3.05;1.50;;;22.70;76.60;;;;;;5043818;28;20083;-72
2022/07/17 12:19:24;;;;;;;4.22;1.33;;;22.70;77.60;;;;;;5038065;28;20493;-68
2022/07/17 12:21:58;;;;;;;5.97;1.38;;;22.80;77.20;;;;;;5023083;28;20041;-71
2022/07/17 12:24:42;;;;;;;6.13;1.33;;;22.90;76.80;;;;;;5050037;28;20049;-71
2022/07/17 12:27:10;;;;;;;3.05;1.08;;;23.00;77.50;;;;;;5048497;28;20037;-71
2022/07/17 12:29:37;;;;;;;2.33;1.38;;;23.00;77.90;;;;;;5040634;28;20083;-71
2022/07/17 12:32:11;;;;;;;6.80;1.50;;;23.00;77.30;;;;;;5044636;28;20370;-71
2022/07/17 12:34:46;;;;;;;7.93;1.65;;;22.90;77.30;;;;;;5026491;28;20504;-71
2022/07/17 12:37:19;;;;;;;3.38;1.67;;;23.00;77.30;;;;;;5041706;28;20032;-71
2022/07/17 12:39:45;;;;;;;;;;;23.00;77.30;;;;;;5036797;28;20536;-71
2022/07/17 12:42:12;;;;;;;4.07;1.90;;;23.00;78.10;;;;;;5046791;28;19987;-70
2022/07/17 12:44:38;;;;;;;11.18;1.90;;;23.10;76.50;;;;;;5042311;28;20131;-71
2022/07/17 12:47:03;;;;;;;3.75;1.55;;;23.20;76.40;;;;;;5044387;28;20040;-71
2022/07/17 12:49:30;;;;;;;4.45;1.48;;;23.30;75.70;;;;;;5045530;28;20026;-72